createdAt,value
2018-04-28T00:02:50.133Z,3.36
2018-04-28T00:12:45.231Z,3.36
2018-04-28T00:22:42.692Z,3.36
2018-04-28T00:32:40.285Z,3.36
2018-04-28T00:42:36.988Z,3.36
2018-04-28T00:52:35.487Z,3.36
2018-04-28T01:02:33.950Z,3.36
2018-04-28T01:12:27.635Z,3.36
2018-04-28T01:22:25.542Z,3.36
2018-04-28T01:32:23.366Z,3.35
2018-04-28T01:42:20.662Z,3.35
2018-04-28T01:52:16.414Z,3.35
2018-04-28T02:02:10.008Z,3.34
2018-04-28T02:12:07.455Z,3.34
2018-04-28T02:22:04.964Z,3.34
2018-04-28T02:31:59.971Z,3.34
2018-04-28T02:42:05.962Z,3.32
2018-04-28T02:52:02.544Z,3.34
2018-04-28T03:02:00.671Z,3.34
2018-04-28T03:11:58.008Z,3.34
2018-04-28T03:21:53.279Z,3.34
2018-04-28T03:31:52.359Z,3.34
2018-04-28T03:41:49.782Z,3.34
2018-04-28T03:51:45.569Z,3.34
2018-04-28T04:01:43.060Z,3.34
2018-04-28T04:11:41.391Z,3.34
2018-04-28T04:21:35.844Z,3.34
2018-04-28T04:31:33.216Z,3.34
2018-04-28T04:41:30.354Z,3.34
2018-04-28T04:51:27.670Z,3.35
2018-04-28T05:01:24.223Z,3.35
2018-04-28T05:11:22.927Z,3.36
2018-04-28T05:21:19.268Z,3.36
2018-04-28T05:31:13.396Z,3.37
2018-04-28T05:41:11.256Z,3.37
2018-04-28T05:51:06.934Z,3.38
2018-04-28T06:01:02.276Z,3.39
2018-04-28T06:11:00.734Z,3.39
2018-04-28T06:20:59.554Z,3.40
2018-04-28T06:30:58.855Z,3.40
2018-04-28T06:40:56.105Z,3.41
2018-04-28T06:50:52.552Z,3.42
2018-04-28T07:00:52.099Z,3.42
2018-04-28T07:10:49.604Z,3.43
2018-04-28T07:20:45.110Z,3.43
2018-04-28T07:30:42.396Z,3.44
2018-04-28T07:40:37.719Z,3.44
2018-04-28T07:50:33.824Z,3.43
2018-04-28T08:00:16.384Z,3.43
2018-04-28T08:10:13.886Z,3.43
2018-04-28T08:20:10.751Z,3.43
2018-04-28T08:30:10.129Z,3.43
2018-04-28T08:40:07.102Z,3.43
2018-04-28T08:50:05.610Z,3.43
2018-04-28T09:00:02.777Z,3.43
2018-04-28T09:10:01.624Z,3.43
2018-04-28T09:19:47.203Z,3.42
2018-04-28T09:29:30.277Z,3.42
2018-04-28T09:39:27.599Z,3.42
2018-04-28T09:49:22.249Z,3.42
2018-04-28T09:59:18.650Z,3.42
2018-04-28T10:09:14.737Z,3.43
2018-04-28T10:19:11.626Z,3.43
2018-04-28T10:29:10.920Z,3.43
2018-04-28T10:38:49.375Z,3.43
2018-04-28T10:48:46.441Z,3.43
2018-04-28T10:58:24.690Z,3.43
2018-04-28T11:08:03.025Z,3.43
2018-04-28T11:17:40.896Z,3.43
2018-04-28T11:27:19.490Z,3.43
2018-04-28T11:36:57.854Z,3.43
2018-04-28T11:46:36.189Z,3.43
2018-04-28T11:56:14.070Z,3.43
2018-04-28T12:05:51.392Z,3.43
2018-04-28T12:15:28.833Z,3.43
2018-04-28T12:25:06.492Z,3.43
2018-04-28T12:34:44.131Z,3.43
2018-04-28T12:44:26.754Z,3.43
2018-04-28T12:53:57.213Z,3.43
2018-04-28T13:03:39.445Z,3.43
2018-04-28T13:13:10.432Z,3.43
2018-04-28T13:22:53.426Z,3.43
2018-04-28T13:32:27.850Z,3.43
2018-04-28T13:42:03.563Z,3.43
2018-04-28T13:51:37.679Z,3.43
2018-04-28T14:01:05.595Z,3.43
2018-04-28T14:10:48.851Z,3.43
2018-04-28T14:20:20.717Z,3.43
2018-04-28T14:29:47.538Z,3.43
2018-04-28T14:39:24.608Z,3.43
2018-04-28T14:48:58.878Z,3.43
2018-04-28T14:58:35.419Z,3.43
2018-04-28T15:08:13.894Z,3.43
2018-04-28T15:17:52.370Z,3.43
2018-04-28T15:27:34.926Z,3.43
2018-04-28T15:37:07.429Z,3.43
2018-04-28T15:46:39.421Z,3.43
2018-04-28T15:56:14.075Z,3.42
2018-04-28T16:05:50.619Z,3.42
2018-04-28T16:15:46.774Z,3.42
2018-04-28T16:25:42.736Z,3.42
2018-04-28T16:35:37.313Z,3.42
2018-04-28T16:45:35.272Z,3.44
2018-04-28T16:55:30.033Z,3.43
2018-04-28T17:05:25.363Z,3.42
2018-04-28T17:15:22.125Z,3.42
2018-04-28T17:25:17.728Z,3.43
2018-04-28T17:35:11.884Z,3.43
2018-04-28T17:45:09.403Z,3.42
2018-04-28T17:55:06.422Z,3.42
2018-04-28T18:05:01.103Z,3.41
2018-04-28T18:14:56.342Z,3.41
2018-04-28T18:24:52.894Z,3.41
2018-04-28T18:34:48.702Z,3.41
2018-04-28T18:44:46.072Z,3.40
2018-04-28T18:54:42.025Z,3.40
2018-04-28T19:04:39.507Z,3.40
2018-04-28T19:14:36.767Z,3.40
2018-04-28T19:24:31.491Z,3.40
2018-04-28T19:34:28.307Z,3.40
2018-04-28T19:44:25.582Z,3.40
2018-04-28T19:54:21.726Z,3.39
2018-04-28T20:04:16.327Z,3.39
2018-04-28T20:14:13.142Z,3.39
2018-04-28T20:24:09.080Z,3.39
2018-04-28T20:34:03.634Z,3.39
2018-04-28T20:44:01.356Z,3.39
2018-04-28T20:53:57.833Z,3.39
2018-04-28T21:03:55.049Z,3.39
2018-04-28T21:13:52.925Z,3.39
2018-04-28T21:23:49.226Z,3.39
2018-04-28T21:33:43.440Z,3.38
2018-04-28T21:43:41.312Z,3.38
2018-04-28T21:53:40.056Z,3.38
2018-04-28T22:03:36.958Z,3.38
2018-04-28T22:13:33.460Z,3.38
2018-04-28T22:23:32.017Z,3.38
2018-04-28T22:33:29.099Z,3.38
2018-04-28T22:43:25.667Z,3.37
2018-04-28T22:53:21.493Z,3.37
2018-04-28T23:03:19.306Z,3.37
2018-04-28T23:13:16.475Z,3.37
2018-04-28T23:23:12.815Z,3.37
2018-04-28T23:33:07.790Z,3.37
2018-04-28T23:43:06.822Z,3.37
2018-04-28T23:53:04.529Z,3.37
